sensor_id;sensor_type;location;lat;lon;timestamp;temperature;humidity
39695;DHT22;25367;-35.352;149.036;2023-03-23T00:02:27;23.00;57.70
39695;DHT22;25367;-35.352;149.036;2023-03-23T00:04:56;22.90;57.40
39695;DHT22;25367;-35.352;149.036;2023-03-23T00:07:26;22.90;56.50
39695;DHT22;25367;-35.352;149.036;2023-03-23T00:09:56;22.80;57.50
39695;DHT22;25367;-35.352;149.036;2023-03-23T00:12:27;22.90;57.90
39695;DHT22;25367;-35.352;149.036;2023-03-23T00:14:59;22.90;58.00
39695;DHT22;25367;-35.352;149.036;2023-03-23T00:17:29;22.90;57.60
39695;DHT22;25367;-35.352;149.036;2023-03-23T00:20:00;22.90;57.60
39695;DHT22;25367;-35.352;149.036;2023-03-23T00:22:30;22.90;57.70
39695;DHT22;25367;-35.352;149.036;2023-03-23T00:24:59;22.90;57.70
39695;DHT22;25367;-35.352;149.036;2023-03-23T00:27:29;22.90;57.60
39695;DHT22;25367;-35.352;149.036;2023-03-23T00:30:01;22.90;57.70
39695;DHT22;25367;-35.352;149.036;2023-03-23T00:32:31;22.90;57.50
39695;DHT22;25367;-35.352;149.036;2023-03-23T00:35:03;22.90;57.60
39695;DHT22;25367;-35.352;149.036;2023-03-23T00:37:33;22.90;57.40
39695;DHT22;25367;-35.352;149.036;2023-03-23T00:40:03;22.80;59.10
39695;DHT22;25367;-35.352;149.036;2023-03-23T00:42:32;22.90;58.10
39695;DHT22;25367;-35.352;149.036;2023-03-23T00:45:04;22.90;57.90
39695;DHT22;25367;-35.352;149.036;2023-03-23T00:47:34;22.90;57.70
39695;DHT22;25367;-35.352;149.036;2023-03-23T00:50:07;22.90;57.70
39695;DHT22;25367;-35.352;149.036;2023-03-23T00:52:36;22.90;57.70
39695;DHT22;25367;-35.352;149.036;2023-03-23T00:55:07;22.90;57.80
39695;DHT22;25367;-35.352;149.036;2023-03-23T00:57:36;22.90;57.90
39695;DHT22;25367;-35.352;149.036;2023-03-23T01:00:11;22.90;57.90
39695;DHT22;25367;-35.352;149.036;2023-03-23T01:02:40;22.90;57.70
39695;DHT22;25367;-35.352;149.036;2023-03-23T01:05:10;22.90;57.90
39695;DHT22;25367;-35.352;149.036;2023-03-23T01:07:40;22.90;57.80
39695;DHT22;25367;-35.352;149.036;2023-03-23T01:10:11;22.90;57.90
39695;DHT22;25367;-35.352;149.036;2023-03-23T01:12:42;22.90;57.90
39695;DHT22;25367;-35.352;149.036;2023-03-23T01:15:16;22.90;58.00
39695;DHT22;25367;-35.352;149.036;2023-03-23T01:17:46;22.90;57.90
39695;DHT22;25367;-35.352;149.036;2023-03-23T01:20:16;22.90;58.10
39695;DHT22;25367;-35.352;149.036;2023-03-23T01:22:46;22.90;58.10
39695;DHT22;25367;-35.352;149.036;2023-03-23T01:25:17;22.90;57.80
39695;DHT22;25367;-35.352;149.036;2023-03-23T01:27:46;22.90;57.70
39695;DHT22;25367;-35.352;149.036;2023-03-23T01:30:18;22.90;57.60
39695;DHT22;25367;-35.352;149.036;2023-03-23T01:32:47;23.00;57.50
39695;DHT22;25367;-35.352;149.036;2023-03-23T01:35:17;23.10;57.50
39695;DHT22;25367;-35.352;149.036;2023-03-23T01:37:48;23.20;57.20
39695;DHT22;25367;-35.352;149.036;2023-03-23T01:40:18;23.20;57.00
39695;DHT22;25367;-35.352;149.036;2023-03-23T01:42:48;23.30;56.80
39695;DHT22;25367;-35.352;149.036;2023-03-23T01:45:31;23.40;56.70
39695;DHT22;25367;-35.352;149.036;2023-03-23T01:48:08;23.50;56.00
39695;DHT22;25367;-35.352;149.036;2023-03-23T01:50:48;23.60;56.30
39695;DHT22;25367;-35.352;149.036;2023-03-23T01:53:20;23.60;56.20
39695;DHT22;25367;-35.352;149.036;2023-03-23T01:55:53;23.60;56.10
39695;DHT22;25367;-35.352;149.036;2023-03-23T01:58:25;23.70;56.10
39695;DHT22;25367;-35.352;149.036;2023-03-23T02:01:00;23.80;55.90
39695;DHT22;25367;-35.352;149.036;2023-03-23T02:03:32;23.80;55.70
39695;DHT22;25367;-35.352;149.036;2023-03-23T02:06:04;23.80;55.70
39695;DHT22;25367;-35.352;149.036;2023-03-23T02:08:53;23.80;55.60
39695;DHT22;25367;-35.352;149.036;2023-03-23T02:11:23;23.80;55.50
39695;DHT22;25367;-35.352;149.036;2023-03-23T02:13:53;23.90;55.40
39695;DHT22;25367;-35.352;149.036;2023-03-23T02:16:33;23.90;55.40
39695;DHT22;25367;-35.352;149.036;2023-03-23T02:19:21;24.00;55.10
39695;DHT22;25367;-35.352;149.036;2023-03-23T02:25:19;23.90;54.80
39695;DHT22;25367;-35.352;149.036;2023-03-23T02:28:14;23.90;55.10
39695;DHT22;25367;-35.352;149.036;2023-03-23T02:30:54;23.90;54.90
39695;DHT22;25367;-35.352;149.036;2023-03-23T02:33:40;23.90;55.30
39695;DHT22;25367;-35.352;149.036;2023-03-23T02:36:13;23.90;55.10
39695;DHT22;25367;-35.352;149.036;2023-03-23T02:38:49;23.80;54.60
39695;DHT22;25367;-35.352;149.036;2023-03-23T02:41:24;23.80;55.60
39695;DHT22;25367;-35.352;149.036;2023-03-23T02:43:56;23.80;55.50
39695;DHT22;25367;-35.352;149.036;2023-03-23T02:46:26;23.80;55.50
39695;DHT22;25367;-35.352;149.036;2023-03-23T02:48:58;23.80;56.10
39695;DHT22;25367;-35.352;149.036;2023-03-23T02:51:29;23.80;55.40
39695;DHT22;25367;-35.352;149.036;2023-03-23T02:54:00;23.90;55.50
39695;DHT22;25367;-35.352;149.036;2023-03-23T02:56:31;23.80;55.50
39695;DHT22;25367;-35.352;149.036;2023-03-23T02:59:02;23.80;55.60
39695;DHT22;25367;-35.352;149.036;2023-03-23T03:04:47;23.80;55.00
39695;DHT22;25367;-35.352;149.036;2023-03-23T03:07:47;23.80;55.60
39695;DHT22;25367;-35.352;149.036;2023-03-23T03:10:24;23.80;55.10
39695;DHT22;25367;-35.352;149.036;2023-03-23T03:12:59;23.80;55.60
39695;DHT22;25367;-35.352;149.036;2023-03-23T03:15:36;23.80;56.20
39695;DHT22;25367;-35.352;149.036;2023-03-23T03:18:11;23.80;55.60
39695;DHT22;25367;-35.352;149.036;2023-03-23T03:20:49;23.80;55.60
39695;DHT22;25367;-35.352;149.036;2023-03-23T03:23:21;23.80;55.60
39695;DHT22;25367;-35.352;149.036;2023-03-23T03:25:52;23.80;55.70
39695;DHT22;25367;-35.352;149.036;2023-03-23T03:28:28;23.80;55.70
39695;DHT22;25367;-35.352;149.036;2023-03-23T03:31:00;23.80;55.70
39695;DHT22;25367;-35.352;149.036;2023-03-23T03:33:31;23.80;55.90
39695;DHT22;25367;-35.352;149.036;2023-03-23T03:36:04;23.80;56.50
39695;DHT22;25367;-35.352;149.036;2023-03-23T03:38:42;23.80;55.90
39695;DHT22;25367;-35.352;149.036;2023-03-23T03:41:13;23.90;55.70
39695;DHT22;25367;-35.352;149.036;2023-03-23T03:43:42;23.80;55.90
39695;DHT22;25367;-35.352;149.036;2023-03-23T03:46:13;23.80;55.90
39695;DHT22;25367;-35.352;149.036;2023-03-23T03:48:42;23.80;56.00
39695;DHT22;25367;-35.352;149.036;2023-03-23T03:51:17;23.80;55.90
39695;DHT22;25367;-35.352;149.036;2023-03-23T03:53:51;23.90;55.80
39695;DHT22;25367;-35.352;149.036;2023-03-23T03:56:21;23.80;56.00
39695;DHT22;25367;-35.352;149.036;2023-03-23T03:59:03;23.80;55.90
39695;DHT22;25367;-35.352;149.036;2023-03-23T04:01:55;23.80;56.00
39695;DHT22;25367;-35.352;149.036;2023-03-23T04:04:24;23.90;56.00
39695;DHT22;25367;-35.352;149.036;2023-03-23T04:06:57;23.90;56.00
39695;DHT22;25367;-35.352;149.036;2023-03-23T04:09:26;23.90;56.00
39695;DHT22;25367;-35.352;149.036;2023-03-23T04:11:56;23.90;56.00
39695;DHT22;25367;-35.352;149.036;2023-03-23T04:14:44;23.90;56.20
39695;DHT22;25367;-35.352;149.036;2023-03-23T04:17:14;23.90;56.20
39695;DHT22;25367;-35.352;149.036;2023-03-23T04:19:44;23.90;56.20
39695;DHT22;25367;-35.352;149.036;2023-03-23T04:22:16;23.90;56.20
39695;DHT22;25367;-35.352;149.036;2023-03-23T04:24:47;23.90;56.00
39695;DHT22;25367;-35.352;149.036;2023-03-23T04:27:20;23.90;56.10
39695;DHT22;25367;-35.352;149.036;2023-03-23T04:29:50;23.90;56.10
39695;DHT22;25367;-35.352;149.036;2023-03-23T04:32:40;23.90;56.20
39695;DHT22;25367;-35.352;149.036;2023-03-23T04:35:11;23.90;56.20
39695;DHT22;25367;-35.352;149.036;2023-03-23T04:37:50;23.90;56.20
39695;DHT22;25367;-35.352;149.036;2023-03-23T04:40:22;23.90;56.10
39695;DHT22;25367;-35.352;149.036;2023-03-23T04:43:05;23.90;56.30
39695;DHT22;25367;-35.352;149.036;2023-03-23T04:45:55;23.90;56.30
39695;DHT22;25367;-35.352;149.036;2023-03-23T04:48:27;23.90;56.30
39695;DHT22;25367;-35.352;149.036;2023-03-23T04:51:07;23.90;56.30
39695;DHT22;25367;-35.352;149.036;2023-03-23T04:53:42;23.90;56.30
39695;DHT22;25367;-35.352;149.036;2023-03-23T04:56:11;24.00;56.20
39695;DHT22;25367;-35.352;149.036;2023-03-23T04:58:45;24.00;56.30
39695;DHT22;25367;-35.352;149.036;2023-03-23T05:01:35;24.00;56.30
39695;DHT22;25367;-35.352;149.036;2023-03-23T05:04:20;24.00;56.30
39695;DHT22;25367;-35.352;149.036;2023-03-23T05:07:04;24.00;56.40
39695;DHT22;25367;-35.352;149.036;2023-03-23T05:09:41;24.00;56.30
39695;DHT22;25367;-35.352;149.036;2023-03-23T05:12:11;24.00;56.20
39695;DHT22;25367;-35.352;149.036;2023-03-23T05:15:08;24.00;56.30
39695;DHT22;25367;-35.352;149.036;2023-03-23T05:17:38;24.00;56.30
39695;DHT22;25367;-35.352;149.036;2023-03-23T05:20:16;24.00;56.30
39695;DHT22;25367;-35.352;149.036;2023-03-23T05:22:46;24.00;56.30
39695;DHT22;25367;-35.352;149.036;2023-03-23T05:25:20;24.10;56.40
39695;DHT22;25367;-35.352;149.036;2023-03-23T05:27:54;24.10;56.30
39695;DHT22;25367;-35.352;149.036;2023-03-23T05:30:50;24.10;56.50
39695;DHT22;25367;-35.352;149.036;2023-03-23T05:33:21;24.10;56.50
39695;DHT22;25367;-35.352;149.036;2023-03-23T05:35:55;24.10;56.50
39695;DHT22;25367;-35.352;149.036;2023-03-23T05:38:30;24.10;56.50
39695;DHT22;25367;-35.352;149.036;2023-03-23T05:41:04;24.20;56.60
39695;DHT22;25367;-35.352;149.036;2023-03-23T05:43:40;24.20;56.50
39695;DHT22;25367;-35.352;149.036;2023-03-23T05:46:16;24.20;56.60
39695;DHT22;25367;-35.352;149.036;2023-03-23T05:48:46;24.20;56.60
39695;DHT22;25367;-35.352;149.036;2023-03-23T05:51:17;24.20;56.60
39695;DHT22;25367;-35.352;149.036;2023-03-23T05:53:47;24.20;55.70
39695;DHT22;25367;-35.352;149.036;2023-03-23T05:56:22;24.20;56.70
39695;DHT22;25367;-35.352;149.036;2023-03-23T05:59:12;24.20;56.50
39695;DHT22;25367;-35.352;149.036;2023-03-23T06:01:44;24.20;56.60
39695;DHT22;25367;-35.352;149.036;2023-03-23T06:04:14;24.30;56.60
39695;DHT22;25367;-35.352;149.036;2023-03-23T06:06:57;24.30;57.10
39695;DHT22;25367;-35.352;149.036;2023-03-23T06:09:26;24.30;56.40
39695;DHT22;25367;-35.352;149.036;2023-03-23T06:12:29;24.30;56.40
39695;DHT22;25367;-35.352;149.036;2023-03-23T06:15:10;24.30;56.30
39695;DHT22;25367;-35.352;149.036;2023-03-23T06:18:03;24.30;56.40
39695;DHT22;25367;-35.352;149.036;2023-03-23T06:20:40;24.30;56.30
39695;DHT22;25367;-35.352;149.036;2023-03-23T06:23:23;24.30;56.30
39695;DHT22;25367;-35.352;149.036;2023-03-23T06:25:56;24.30;56.20
39695;DHT22;25367;-35.352;149.036;2023-03-23T06:28:30;24.40;56.30
39695;DHT22;25367;-35.352;149.036;2023-03-23T06:31:00;24.40;56.20
39695;DHT22;25367;-35.352;149.036;2023-03-23T06:33:31;24.40;56.20
39695;DHT22;25367;-35.352;149.036;2023-03-23T06:36:26;24.40;56.20
39695;DHT22;25367;-35.352;149.036;2023-03-23T06:39:13;24.40;56.20
39695;DHT22;25367;-35.352;149.036;2023-03-23T06:42:17;24.40;56.20
39695;DHT22;25367;-35.352;149.036;2023-03-23T06:44:56;24.40;56.20
39695;DHT22;25367;-35.352;149.036;2023-03-23T06:47:27;24.50;56.10
39695;DHT22;25367;-35.352;149.036;2023-03-23T06:49:56;24.50;56.10
39695;DHT22;25367;-35.352;149.036;2023-03-23T06:52:28;24.50;56.10
39695;DHT22;25367;-35.352;149.036;2023-03-23T06:54:58;24.50;56.20
39695;DHT22;25367;-35.352;149.036;2023-03-23T06:57:27;24.50;56.10
39695;DHT22;25367;-35.352;149.036;2023-03-23T07:00:01;24.60;56.10
39695;DHT22;25367;-35.352;149.036;2023-03-23T07:02:29;24.50;55.90
39695;DHT22;25367;-35.352;149.036;2023-03-23T07:04:59;24.50;55.40
39695;DHT22;25367;-35.352;149.036;2023-03-23T07:07:29;24.50;56.20
39695;DHT22;25367;-35.352;149.036;2023-03-23T07:10:15;24.50;56.10
39695;DHT22;25367;-35.352;149.036;2023-03-23T07:12:45;24.50;56.00
39695;DHT22;25367;-35.352;149.036;2023-03-23T07:15:16;24.60;56.00
39695;DHT22;25367;-35.352;149.036;2023-03-23T07:17:49;24.60;56.00
39695;DHT22;25367;-35.352;149.036;2023-03-23T07:20:26;24.60;56.00
39695;DHT22;25367;-35.352;149.036;2023-03-23T07:22:56;24.60;56.00
39695;DHT22;25367;-35.352;149.036;2023-03-23T07:25:43;24.60;56.00
39695;DHT22;25367;-35.352;149.036;2023-03-23T07:28:17;24.60;56.00
39695;DHT22;25367;-35.352;149.036;2023-03-23T07:30:48;24.60;56.00
39695;DHT22;25367;-35.352;149.036;2023-03-23T07:33:18;24.60;56.00
39695;DHT22;25367;-35.352;149.036;2023-03-23T07:35:48;24.70;56.00
39695;DHT22;25367;-35.352;149.036;2023-03-23T07:38:24;24.70;56.00
39695;DHT22;25367;-35.352;149.036;2023-03-23T07:40:52;24.60;56.00
39695;DHT22;25367;-35.352;149.036;2023-03-23T07:43:33;24.60;55.40
39695;DHT22;25367;-35.352;149.036;2023-03-23T07:46:16;24.60;56.20
39695;DHT22;25367;-35.352;149.036;2023-03-23T07:49:05;24.60;56.20
39695;DHT22;25367;-35.352;149.036;2023-03-23T07:51:42;24.60;56.20
39695;DHT22;25367;-35.352;149.036;2023-03-23T07:54:14;24.60;56.10
39695;DHT22;25367;-35.352;149.036;2023-03-23T07:57:02;24.70;56.30
39695;DHT22;25367;-35.352;149.036;2023-03-23T07:59:35;24.70;56.20
39695;DHT22;25367;-35.352;149.036;2023-03-23T08:02:09;24.70;56.10
39695;DHT22;25367;-35.352;149.036;2023-03-23T08:04:52;24.70;56.00
39695;DHT22;25367;-35.352;149.036;2023-03-23T08:07:34;24.70;56.10
39695;DHT22;25367;-35.352;149.036;2023-03-23T08:10:06;24.70;56.10
39695;DHT22;25367;-35.352;149.036;2023-03-23T08:13:03;24.60;55.40
39695;DHT22;25367;-35.352;149.036;2023-03-23T08:16:01;24.60;56.30
39695;DHT22;25367;-35.352;149.036;2023-03-23T08:18:44;24.60;56.20
39695;DHT22;25367;-35.352;149.036;2023-03-23T08:21:37;24.70;56.20
39695;DHT22;25367;-35.352;149.036;2023-03-23T08:24:37;24.70;56.10
39695;DHT22;25367;-35.352;149.036;2023-03-23T08:27:25;24.60;56.00
39695;DHT22;25367;-35.352;149.036;2023-03-23T08:30:16;24.60;56.00
39695;DHT22;25367;-35.352;149.036;2023-03-23T08:33:04;24.70;56.00
39695;DHT22;25367;-35.352;149.036;2023-03-23T08:35:59;24.60;56.00
39695;DHT22;25367;-35.352;149.036;2023-03-23T08:38:43;24.70;55.90
39695;DHT22;25367;-35.352;149.036;2023-03-23T08:41:29;24.70;56.00
39695;DHT22;25367;-35.352;149.036;2023-03-23T08:44:13;24.70;56.00
39695;DHT22;25367;-35.352;149.036;2023-03-23T08:46:56;24.60;55.90
39695;DHT22;25367;-35.352;149.036;2023-03-23T08:49:44;24.60;55.90
39695;DHT22;25367;-35.352;149.036;2023-03-23T08:52:31;24.60;55.90
39695;DHT22;25367;-35.352;149.036;2023-03-23T08:55:38;24.70;56.00
39695;DHT22;25367;-35.352;149.036;2023-03-23T08:58:25;24.60;56.00
39695;DHT22;25367;-35.352;149.036;2023-03-23T09:01:30;24.60;55.90
39695;DHT22;25367;-35.352;149.036;2023-03-23T09:04:23;24.60;55.90
39695;DHT22;25367;-35.352;149.036;2023-03-23T09:07:21;24.60;55.90
39695;DHT22;25367;-35.352;149.036;2023-03-23T09:09:53;24.60;55.90
39695;DHT22;25367;-35.352;149.036;2023-03-23T09:12:22;24.60;55.80
39695;DHT22;25367;-35.352;149.036;2023-03-23T09:14:51;24.60;55.80
39695;DHT22;25367;-35.352;149.036;2023-03-23T09:17:21;24.60;55.70
39695;DHT22;25367;-35.352;149.036;2023-03-23T09:19:51;24.60;55.70
39695;DHT22;25367;-35.352;149.036;2023-03-23T09:22:20;24.60;55.60
39695;DHT22;25367;-35.352;149.036;2023-03-23T09:24:51;24.60;55.50
39695;DHT22;25367;-35.352;149.036;2023-03-23T09:27:21;24.60;55.50
39695;DHT22;25367;-35.352;149.036;2023-03-23T09:29:50;24.60;55.50
39695;DHT22;25367;-35.352;149.036;2023-03-23T09:32:20;24.60;55.40
39695;DHT22;25367;-35.352;149.036;2023-03-23T09:34:49;24.60;55.40
39695;DHT22;25367;-35.352;149.036;2023-03-23T09:37:18;24.50;55.40
39695;DHT22;25367;-35.352;149.036;2023-03-23T09:39:48;24.50;55.50
39695;DHT22;25367;-35.352;149.036;2023-03-23T09:42:39;24.50;55.40
39695;DHT22;25367;-35.352;149.036;2023-03-23T09:45:16;24.50;55.20
39695;DHT22;25367;-35.352;149.036;2023-03-23T09:47:56;24.50;55.70
39695;DHT22;25367;-35.352;149.036;2023-03-23T09:50:31;24.50;55.90
39695;DHT22;25367;-35.352;149.036;2023-03-23T09:53:08;24.50;56.00
39695;DHT22;25367;-35.352;149.036;2023-03-23T09:55:39;24.50;56.10
39695;DHT22;25367;-35.352;149.036;2023-03-23T09:58:17;24.50;56.10
39695;DHT22;25367;-35.352;149.036;2023-03-23T10:00:51;24.50;56.00
39695;DHT22;25367;-35.352;149.036;2023-03-23T10:03:24;24.50;56.10
39695;DHT22;25367;-35.352;149.036;2023-03-23T10:05:56;24.50;56.30
39695;DHT22;25367;-35.352;149.036;2023-03-23T10:08:26;24.50;56.20
39695;DHT22;25367;-35.352;149.036;2023-03-23T10:11:01;24.60;56.30
39695;DHT22;25367;-35.352;149.036;2023-03-23T10:13:51;24.60;56.20
39695;DHT22;25367;-35.352;149.036;2023-03-23T10:16:24;24.60;55.80
39695;DHT22;25367;-35.352;149.036;2023-03-23T10:18:59;24.60;56.20
39695;DHT22;25367;-35.352;149.036;2023-03-23T10:21:30;24.60;56.20
39695;DHT22;25367;-35.352;149.036;2023-03-23T10:24:02;24.60;56.30
39695;DHT22;25367;-35.352;149.036;2023-03-23T10:26:41;24.60;56.20
39695;DHT22;25367;-35.352;149.036;2023-03-23T10:29:29;24.60;56.00
39695;DHT22;25367;-35.352;149.036;2023-03-23T10:32:02;24.60;55.80
39695;DHT22;25367;-35.352;149.036;2023-03-23T10:34:34;24.60;56.00
39695;DHT22;25367;-35.352;149.036;2023-03-23T10:37:08;24.60;56.00
39695;DHT22;25367;-35.352;149.036;2023-03-23T10:39:45;24.60;55.90
39695;DHT22;25367;-35.352;149.036;2023-03-23T10:42:24;24.60;55.90
39695;DHT22;25367;-35.352;149.036;2023-03-23T10:44:59;24.60;55.80
39695;DHT22;25367;-35.352;149.036;2023-03-23T10:47:29;24.60;55.90
39695;DHT22;25367;-35.352;149.036;2023-03-23T10:50:00;24.60;55.90
39695;DHT22;25367;-35.352;149.036;2023-03-23T10:52:34;24.60;55.80
39695;DHT22;25367;-35.352;149.036;2023-03-23T10:55:06;24.60;55.70
39695;DHT22;25367;-35.352;149.036;2023-03-23T10:57:37;24.70;55.90
39695;DHT22;25367;-35.352;149.036;2023-03-23T11:00:19;24.60;55.80
39695;DHT22;25367;-35.352;149.036;2023-03-23T11:02:59;24.70;55.60
39695;DHT22;25367;-35.352;149.036;2023-03-23T11:05:35;24.70;55.60
39695;DHT22;25367;-35.352;149.036;2023-03-23T11:08:10;24.60;55.60
39695;DHT22;25367;-35.352;149.036;2023-03-23T11:10:46;24.60;55.70
39695;DHT22;25367;-35.352;149.036;2023-03-23T11:13:17;24.60;55.60
39695;DHT22;25367;-35.352;149.036;2023-03-23T11:15:50;24.70;55.60
39695;DHT22;25367;-35.352;149.036;2023-03-23T11:18:19;24.70;55.70
39695;DHT22;25367;-35.352;149.036;2023-03-23T11:20:51;24.60;55.30
39695;DHT22;25367;-35.352;149.036;2023-03-23T11:23:23;24.60;55.80
39695;DHT22;25367;-35.352;149.036;2023-03-23T11:25:57;24.60;55.60
39695;DHT22;25367;-35.352;149.036;2023-03-23T11:28:32;24.70;55.60
39695;DHT22;25367;-35.352;149.036;2023-03-23T11:31:07;24.70;55.50
39695;DHT22;25367;-35.352;149.036;2023-03-23T11:33:46;24.70;55.50
39695;DHT22;25367;-35.352;149.036;2023-03-23T11:36:16;24.70;55.40
39695;DHT22;25367;-35.352;149.036;2023-03-23T11:38:46;24.60;55.40
39695;DHT22;25367;-35.352;149.036;2023-03-23T11:41:21;24.60;55.40
39695;DHT22;25367;-35.352;149.036;2023-03-23T11:43:53;24.70;55.40
39695;DHT22;25367;-35.352;149.036;2023-03-23T11:46:32;24.70;55.40
39695;DHT22;25367;-35.352;149.036;2023-03-23T11:49:04;24.70;55.20
39695;DHT22;25367;-35.352;149.036;2023-03-23T11:51:40;24.70;55.30
39695;DHT22;25367;-35.352;149.036;2023-03-23T11:54:17;24.70;55.30
39695;DHT22;25367;-35.352;149.036;2023-03-23T11:56:48;24.70;55.20
39695;DHT22;25367;-35.352;149.036;2023-03-23T11:59:25;24.70;55.40
39695;DHT22;25367;-35.352;149.036;2023-03-23T12:02:04;24.60;55.50
39695;DHT22;25367;-35.352;149.036;2023-03-23T12:04:57;24.60;55.40
39695;DHT22;25367;-35.352;149.036;2023-03-23T12:07:46;24.60;55.30
39695;DHT22;25367;-35.352;149.036;2023-03-23T12:10:25;24.60;55.40
39695;DHT22;25367;-35.352;149.036;2023-03-23T12:13:09;24.60;55.40
39695;DHT22;25367;-35.352;149.036;2023-03-23T12:15:48;24.60;55.40
39695;DHT22;25367;-35.352;149.036;2023-03-23T12:18:36;24.50;55.40
39695;DHT22;25367;-35.352;149.036;2023-03-23T12:21:12;24.50;55.40
39695;DHT22;25367;-35.352;149.036;2023-03-23T12:23:48;24.50;55.40
39695;DHT22;25367;-35.352;149.036;2023-03-23T12:26:22;24.40;55.40
39695;DHT22;25367;-35.352;149.036;2023-03-23T12:29:06;24.40;55.40
39695;DHT22;25367;-35.352;149.036;2023-03-23T12:31:54;24.40;55.30
39695;DHT22;25367;-35.352;149.036;2023-03-23T12:34:36;24.40;55.30
39695;DHT22;25367;-35.352;149.036;2023-03-23T12:37:31;24.30;55.20
39695;DHT22;25367;-35.352;149.036;2023-03-23T12:40:22;24.40;55.10
39695;DHT22;25367;-35.352;149.036;2023-03-23T12:42:58;24.30;55.20
39695;DHT22;25367;-35.352;149.036;2023-03-23T12:45:40;24.30;55.30
39695;DHT22;25367;-35.352;149.036;2023-03-23T12:48:14;24.20;55.00
39695;DHT22;25367;-35.352;149.036;2023-03-23T12:51:00;24.20;55.50
39695;DHT22;25367;-35.352;149.036;2023-03-23T12:53:32;24.20;55.30
39695;DHT22;25367;-35.352;149.036;2023-03-23T12:56:12;24.20;55.20
39695;DHT22;25367;-35.352;149.036;2023-03-23T12:58:44;24.20;55.10
39695;DHT22;25367;-35.352;149.036;2023-03-23T13:01:18;24.20;55.20
39695;DHT22;25367;-35.352;149.036;2023-03-23T13:03:53;24.20;55.10
39695;DHT22;25367;-35.352;149.036;2023-03-23T13:06:30;24.20;55.10
39695;DHT22;25367;-35.352;149.036;2023-03-23T13:09:04;24.10;55.00
39695;DHT22;25367;-35.352;149.036;2023-03-23T13:11:33;24.10;55.10
39695;DHT22;25367;-35.352;149.036;2023-03-23T13:14:12;24.00;54.80
39695;DHT22;25367;-35.352;149.036;2023-03-23T13:16:49;24.00;55.30
39695;DHT22;25367;-35.352;149.036;2023-03-23T13:19:26;24.00;55.20
39695;DHT22;25367;-35.352;149.036;2023-03-23T13:22:04;24.00;55.10
39695;DHT22;25367;-35.352;149.036;2023-03-23T13:24:38;24.00;55.10
39695;DHT22;25367;-35.352;149.036;2023-03-23T13:27:09;24.00;55.10
39695;DHT22;25367;-35.352;149.036;2023-03-23T13:29:45;24.00;55.10
39695;DHT22;25367;-35.352;149.036;2023-03-23T13:32:17;24.00;55.10
39695;DHT22;25367;-35.352;149.036;2023-03-23T13:34:48;24.00;55.10
39695;DHT22;25367;-35.352;149.036;2023-03-23T13:37:40;24.00;55.10
39695;DHT22;25367;-35.352;149.036;2023-03-23T13:40:20;23.90;54.90
39695;DHT22;25367;-35.352;149.036;2023-03-23T13:42:51;23.90;55.10
39695;DHT22;25367;-35.352;149.036;2023-03-23T13:45:22;23.90;55.20
39695;DHT22;25367;-35.352;149.036;2023-03-23T13:48:04;23.90;55.20
39695;DHT22;25367;-35.352;149.036;2023-03-23T13:50:44;23.90;54.90
39695;DHT22;25367;-35.352;149.036;2023-03-23T13:53:27;23.90;55.00
39695;DHT22;25367;-35.352;149.036;2023-03-23T13:56:13;23.80;55.00
39695;DHT22;25367;-35.352;149.036;2023-03-23T13:58:49;23.80;55.00
39695;DHT22;25367;-35.352;149.036;2023-03-23T14:01:30;23.80;55.20
39695;DHT22;25367;-35.352;149.036;2023-03-23T14:04:00;23.80;55.20
39695;DHT22;25367;-35.352;149.036;2023-03-23T14:06:35;23.80;55.20
39695;DHT22;25367;-35.352;149.036;2023-03-23T14:09:18;23.80;55.10
39695;DHT22;25367;-35.352;149.036;2023-03-23T14:11:51;23.70;55.10
39695;DHT22;25367;-35.352;149.036;2023-03-23T14:14:28;23.70;55.10
39695;DHT22;25367;-35.352;149.036;2023-03-23T14:17:10;23.70;55.10
39695;DHT22;25367;-35.352;149.036;2023-03-23T14:19:46;23.70;55.00
39695;DHT22;25367;-35.352;149.036;2023-03-23T14:22:22;23.60;55.10
39695;DHT22;25367;-35.352;149.036;2023-03-23T14:25:02;23.70;55.10
39695;DHT22;25367;-35.352;149.036;2023-03-23T14:27:38;23.70;55.00
39695;DHT22;25367;-35.352;149.036;2023-03-23T14:30:13;23.60;55.10
39695;DHT22;25367;-35.352;149.036;2023-03-23T14:32:44;23.60;55.10
39695;DHT22;25367;-35.352;149.036;2023-03-23T14:35:17;23.60;55.10
39695;DHT22;25367;-35.352;149.036;2023-03-23T14:37:49;23.60;55.10
39695;DHT22;25367;-35.352;149.036;2023-03-23T14:40:22;23.60;55.20
39695;DHT22;25367;-35.352;149.036;2023-03-23T14:42:52;23.60;55.20
39695;DHT22;25367;-35.352;149.036;2023-03-23T14:45:23;23.50;55.10
39695;DHT22;25367;-35.352;149.036;2023-03-23T14:47:56;23.50;55.20
39695;DHT22;25367;-35.352;149.036;2023-03-23T14:50:28;23.50;55.20
39695;DHT22;25367;-35.352;149.036;2023-03-23T14:53:01;23.50;55.20
39695;DHT22;25367;-35.352;149.036;2023-03-23T14:55:34;23.50;55.20
39695;DHT22;25367;-35.352;149.036;2023-03-23T14:58:08;23.50;55.20
39695;DHT22;25367;-35.352;149.036;2023-03-23T15:00:42;23.50;55.20
39695;DHT22;25367;-35.352;149.036;2023-03-23T15:03:14;23.50;55.20
39695;DHT22;25367;-35.352;149.036;2023-03-23T15:05:46;23.40;55.10
39695;DHT22;25367;-35.352;149.036;2023-03-23T15:08:22;23.40;55.20
39695;DHT22;25367;-35.352;149.036;2023-03-23T15:11:04;23.40;55.10
39695;DHT22;25367;-35.352;149.036;2023-03-23T15:13:35;23.40;55.00
39695;DHT22;25367;-35.352;149.036;2023-03-23T15:16:06;23.40;55.20
39695;DHT22;25367;-35.352;149.036;2023-03-23T15:18:41;23.40;55.20
39695;DHT22;25367;-35.352;149.036;2023-03-23T15:21:23;23.40;55.20
39695;DHT22;25367;-35.352;149.036;2023-03-23T15:23:53;23.30;55.10
39695;DHT22;25367;-35.352;149.036;2023-03-23T15:26:31;23.30;55.20
39695;DHT22;25367;-35.352;149.036;2023-03-23T15:29:18;23.30;55.00
39695;DHT22;25367;-35.352;149.036;2023-03-23T15:31:50;23.30;55.50
39695;DHT22;25367;-35.352;149.036;2023-03-23T15:34:29;23.30;55.20
39695;DHT22;25367;-35.352;149.036;2023-03-23T15:37:01;23.30;55.10
39695;DHT22;25367;-35.352;149.036;2023-03-23T15:39:31;23.20;55.10
39695;DHT22;25367;-35.352;149.036;2023-03-23T15:42:07;23.20;55.10
39695;DHT22;25367;-35.352;149.036;2023-03-23T15:44:56;23.20;55.10
39695;DHT22;25367;-35.352;149.036;2023-03-23T15:47:36;23.20;55.10
39695;DHT22;25367;-35.352;149.036;2023-03-23T15:50:11;23.20;55.00